createdAt,value
2024-02-06T00:01:53.255Z,2.10
2024-02-06T00:04:26.000Z,1.83
2024-02-06T00:06:55.931Z,1.60
2024-02-06T00:09:26.205Z,1.80
2024-02-06T00:11:56.036Z,1.80
2024-02-06T00:14:25.917Z,1.60
2024-02-06T00:16:55.947Z,1.80
2024-02-06T00:19:28.376Z,1.65
2024-02-06T00:21:58.291Z,1.80
2024-02-06T00:24:28.451Z,1.60
2024-02-06T00:26:58.465Z,1.40
2024-02-06T00:29:30.176Z,1.45
2024-02-06T00:31:59.980Z,1.60
2024-02-06T00:34:32.735Z,2.15
2024-02-06T00:37:02.672Z,1.30
2024-02-06T00:39:33.443Z,1.40
2024-02-06T00:42:03.269Z,1.33
2024-02-06T00:44:33.125Z,1.30
2024-02-06T00:47:03.801Z,1.60
2024-02-06T00:49:36.383Z,1.15
2024-02-06T00:52:06.782Z,1.08
2024-02-06T00:54:36.693Z,1.35
2024-02-06T00:57:06.826Z,1.30
2024-02-06T00:59:36.628Z,1.10
2024-02-06T01:02:06.553Z,1.05
2024-02-06T01:04:39.446Z,1.00
2024-02-06T01:07:09.412Z,1.30
2024-02-06T01:09:39.541Z,1.02
2024-02-06T01:12:10.076Z,1.05
2024-02-06T01:14:39.994Z,0.88
2024-02-06T01:17:09.925Z,1.00
2024-02-06T01:19:43.377Z,1.13
2024-02-06T01:22:13.324Z,1.10
2024-02-06T01:24:43.709Z,1.05
2024-02-06T01:27:13.657Z,1.05
2024-02-06T01:29:44.198Z,0.95
2024-02-06T01:32:14.163Z,0.70
2024-02-06T01:34:47.200Z,0.80
2024-02-06T01:37:17.210Z,0.80
2024-02-06T01:39:47.228Z,0.65
2024-02-06T01:42:17.119Z,0.80
2024-02-06T01:44:47.116Z,0.90
2024-02-06T01:47:18.616Z,0.70
2024-02-06T01:49:51.413Z,0.70
2024-02-06T01:52:22.524Z,1.30
2024-02-06T01:54:52.393Z,1.00
2024-02-06T01:57:22.523Z,0.80
2024-02-06T01:59:53.186Z,0.60
2024-02-06T02:02:23.231Z,0.70
2024-02-06T02:04:55.873Z,0.93
2024-02-06T02:07:26.631Z,0.85
2024-02-06T02:09:56.601Z,0.70
2024-02-06T02:12:26.589Z,0.95
2024-02-06T02:14:56.456Z,1.00
2024-02-06T02:17:26.331Z,1.10
2024-02-06T02:19:58.786Z,1.10
2024-02-06T02:22:31.273Z,0.90
2024-02-06T02:25:01.567Z,1.27
2024-02-06T02:27:31.547Z,1.30
2024-02-06T02:30:02.281Z,1.40
2024-02-06T02:32:32.980Z,1.98
2024-02-06T02:35:02.891Z,1.63
2024-02-06T02:37:35.431Z,1.80
2024-02-06T02:40:05.415Z,1.73
2024-02-06T02:42:35.500Z,1.70
2024-02-06T02:45:05.393Z,1.90
2024-02-06T02:47:35.475Z,2.35
2024-02-06T02:50:05.377Z,2.25
2024-02-06T02:52:37.997Z,2.45
2024-02-06T02:55:08.563Z,2.10
2024-02-06T02:57:38.408Z,2.67
2024-02-06T03:00:09.795Z,2.33
2024-02-06T03:02:39.629Z,2.00
2024-02-06T03:05:10.640Z,1.95
2024-02-06T03:07:43.117Z,2.67
2024-02-06T03:10:13.187Z,2.47
2024-02-06T03:12:43.012Z,2.20
2024-02-06T03:15:13.239Z,2.40
2024-02-06T03:17:43.249Z,1.83
2024-02-06T03:20:14.600Z,2.00
2024-02-06T03:22:47.007Z,1.40
2024-02-06T03:25:17.244Z,1.80
2024-02-06T03:27:47.507Z,2.00
2024-02-06T03:30:19.064Z,2.10
2024-02-06T03:32:50.021Z,1.65
2024-02-06T03:35:20.071Z,1.70
2024-02-06T03:37:52.662Z,1.80
2024-02-06T03:40:22.992Z,1.90
2024-02-06T03:42:52.834Z,1.40
2024-02-06T03:45:22.949Z,1.52
2024-02-06T03:47:52.832Z,1.70
2024-02-06T03:50:22.705Z,1.50
2024-02-06T03:52:55.341Z,1.83
2024-02-06T03:55:25.266Z,2.00
2024-02-06T03:57:55.155Z,1.52
2024-02-06T04:00:25.370Z,1.88
2024-02-06T04:02:55.186Z,1.45
2024-02-06T04:05:25.745Z,1.80
2024-02-06T04:07:58.443Z,1.70
2024-02-06T04:10:29.845Z,1.77
2024-02-06T04:12:59.684Z,1.65
2024-02-06T04:15:29.593Z,1.30
2024-02-06T04:17:59.684Z,1.50
2024-02-06T04:20:29.986Z,1.55
2024-02-06T04:23:02.829Z,1.02
2024-02-06T04:25:33.139Z,1.08
2024-02-06T04:28:03.412Z,1.58
2024-02-06T04:30:33.375Z,1.40
2024-02-06T04:33:03.307Z,1.23
2024-02-06T04:35:33.267Z,1.35
2024-02-06T04:38:05.874Z,1.20
2024-02-06T04:40:35.888Z,1.38
2024-02-06T04:43:05.774Z,1.73
2024-02-06T04:45:35.667Z,1.40
2024-02-06T04:48:06.000Z,1.30
2024-02-06T04:50:35.870Z,1.20
2024-02-06T04:53:08.299Z,1.30
2024-02-06T04:55:38.331Z,1.02
2024-02-06T04:58:08.796Z,1.40
2024-02-06T05:00:38.682Z,1.50
2024-02-06T05:03:09.103Z,1.00
2024-02-06T05:05:38.943Z,1.27
2024-02-06T05:08:11.839Z,1.13
2024-02-06T05:10:42.298Z,1.02
2024-02-06T05:13:12.167Z,1.35
2024-02-06T05:15:42.350Z,1.35
2024-02-06T05:18:12.311Z,1.35
2024-02-06T05:20:42.112Z,1.05
2024-02-06T05:23:15.470Z,1.10
2024-02-06T05:25:45.970Z,1.30
2024-02-06T05:28:15.860Z,1.15
2024-02-06T05:30:45.669Z,1.30
2024-02-06T05:33:16.595Z,1.17
2024-02-06T05:35:46.618Z,1.10
2024-02-06T05:38:19.801Z,1.38
2024-02-06T05:40:49.608Z,1.13
2024-02-06T05:43:19.512Z,1.25
2024-02-06T05:45:49.638Z,1.30
2024-02-06T05:48:19.468Z,1.67
2024-02-06T05:50:49.801Z,1.27
2024-02-06T05:53:22.482Z,1.13
2024-02-06T05:55:52.958Z,1.20
2024-02-06T05:58:25.749Z,1.63
2024-02-06T06:00:56.099Z,1.05
2024-02-06T06:03:26.477Z,1.10
2024-02-06T06:05:56.716Z,1.20
2024-02-06T06:08:29.782Z,1.30
2024-02-06T06:11:00.147Z,1.30
2024-02-06T06:13:30.246Z,1.17
2024-02-06T06:16:00.280Z,1.15
2024-02-06T06:18:30.197Z,1.42
2024-02-06T06:21:00.074Z,1.17
2024-02-06T06:23:32.495Z,1.55
2024-02-06T06:26:03.099Z,1.27
2024-02-06T06:28:32.973Z,1.20
2024-02-06T06:31:02.875Z,1.15
2024-02-06T06:33:32.848Z,1.42
2024-02-06T06:36:02.608Z,1.27
2024-02-06T06:38:34.997Z,1.40
2024-02-06T06:41:05.482Z,1.30
2024-02-06T06:43:35.455Z,1.23
2024-02-06T06:46:05.654Z,1.30
2024-02-06T06:48:36.404Z,1.42
2024-02-06T06:51:06.426Z,1.20
2024-02-06T06:53:38.828Z,1.40
2024-02-06T06:56:18.834Z,1.60
2024-02-06T06:58:49.166Z,1.10
2024-02-06T07:01:19.165Z,1.50
2024-02-06T07:03:49.059Z,1.40
2024-02-06T07:06:18.963Z,1.67
2024-02-06T07:08:52.847Z,1.15
2024-02-06T07:11:23.340Z,1.58
2024-02-06T07:13:53.183Z,1.45
2024-02-06T07:16:23.466Z,1.30
2024-02-06T07:18:53.305Z,1.50
2024-02-06T07:21:23.169Z,1.45
2024-02-06T07:23:55.966Z,1.20
2024-02-06T07:26:26.291Z,1.35
2024-02-06T07:28:56.163Z,1.60
2024-02-06T07:31:26.054Z,1.08
2024-02-06T07:33:56.036Z,1.67
2024-02-06T07:36:26.350Z,1.20
2024-02-06T07:38:58.798Z,1.50
2024-02-06T07:41:28.649Z,1.30
2024-02-06T07:43:58.634Z,1.38
2024-02-06T07:46:28.670Z,1.50
2024-02-06T07:48:58.640Z,1.30
2024-02-06T07:51:29.116Z,1.20
2024-02-06T07:54:01.591Z,1.20
2024-02-06T07:56:33.407Z,1.17
2024-02-06T07:59:03.700Z,1.35
2024-02-06T08:01:34.001Z,1.35
2024-02-06T08:04:05.522Z,1.25
2024-02-06T08:06:36.312Z,1.50
2024-02-06T08:09:10.002Z,1.50
2024-02-06T08:11:40.128Z,1.42
2024-02-06T08:14:15.171Z,1.40
2024-02-06T08:16:45.442Z,1.10
2024-02-06T08:19:15.492Z,1.25
2024-02-06T08:21:46.183Z,1.50
2024-02-06T08:24:18.615Z,1.10
2024-02-06T08:26:48.434Z,1.23
2024-02-06T08:29:18.209Z,1.00
2024-02-06T08:31:51.090Z,1.13
2024-02-06T08:34:21.098Z,1.17
2024-02-06T08:36:51.050Z,1.38
2024-02-06T08:39:27.293Z,1.20
2024-02-06T08:41:57.123Z,1.30
2024-02-06T08:44:27.146Z,1.10
2024-02-06T08:46:57.315Z,1.08
2024-02-06T08:49:27.302Z,1.35
2024-02-06T08:51:57.266Z,1.23
2024-02-06T08:54:29.742Z,1.00
2024-02-06T08:56:59.601Z,1.00
2024-02-06T08:59:29.432Z,1.30
2024-02-06T09:02:01.371Z,1.05
2024-02-06T09:04:31.295Z,1.08
2024-02-06T09:07:01.807Z,0.93
2024-02-06T09:09:34.355Z,1.20
2024-02-06T09:12:04.171Z,1.42
2024-02-06T09:14:36.640Z,1.08
2024-02-06T09:17:09.085Z,1.07
2024-02-06T09:19:42.211Z,1.40
2024-02-06T09:22:12.589Z,1.67
2024-02-06T09:24:44.974Z,1.00
2024-02-06T09:27:14.746Z,1.10
2024-02-06T09:29:44.900Z,1.20
2024-02-06T09:32:15.876Z,1.38
2024-02-06T09:34:46.081Z,1.67
2024-02-06T09:37:16.084Z,1.25
2024-02-06T09:39:48.502Z,1.08
2024-02-06T09:42:19.812Z,1.25
2024-02-06T09:44:50.134Z,0.98
2024-02-06T09:47:19.962Z,1.23
2024-02-06T09:49:49.826Z,1.30
2024-02-06T09:52:21.782Z,1.23
2024-02-06T09:54:55.713Z,1.02
2024-02-06T09:57:25.651Z,1.00
2024-02-06T09:59:58.272Z,1.00
2024-02-06T10:02:29.331Z,1.30
2024-02-06T10:05:03.301Z,1.00
2024-02-06T10:07:33.748Z,1.23
2024-02-06T10:10:07.907Z,1.10
2024-02-06T10:12:38.816Z,1.67
2024-02-06T10:15:12.131Z,1.70
2024-02-06T10:17:42.116Z,1.50
2024-02-06T10:20:13.196Z,1.40
2024-02-06T10:22:44.399Z,1.30
2024-02-06T10:25:19.015Z,2.35
2024-02-06T10:27:49.078Z,1.23
2024-02-06T10:30:26.721Z,1.65
2024-02-06T10:32:56.660Z,1.52
2024-02-06T10:35:33.198Z,1.63
2024-02-06T10:38:03.912Z,1.70
2024-02-06T10:40:36.355Z,1.33
2024-02-06T10:43:37.254Z,1.30
2024-02-06T10:46:03.294Z,1.40
2024-02-06T10:48:34.025Z,1.08
2024-02-06T10:51:06.415Z,1.23
2024-02-06T10:53:36.468Z,1.40
2024-02-06T10:56:10.214Z,1.52
2024-02-06T10:58:42.407Z,1.30
2024-02-06T11:01:15.880Z,1.20
2024-02-06T11:03:50.419Z,1.27
2024-02-06T11:06:27.943Z,1.00
2024-02-06T11:08:59.922Z,1.10
2024-02-06T11:11:33.200Z,0.93
2024-02-06T11:14:04.820Z,0.80
2024-02-06T11:16:38.200Z,1.17
2024-02-06T11:19:14.517Z,1.20
2024-02-06T11:21:46.490Z,1.20
2024-02-06T11:24:16.621Z,0.95
2024-02-06T11:26:49.300Z,0.70
2024-02-06T11:29:19.277Z,0.85
2024-02-06T11:31:49.263Z,0.82
2024-02-06T11:34:20.429Z,1.75
2024-02-06T11:36:51.748Z,0.98
2024-02-06T11:39:26.344Z,0.85
2024-02-06T11:42:03.928Z,1.67
2024-02-06T11:44:33.750Z,1.00
2024-02-06T11:47:03.541Z,0.93
2024-02-06T11:49:34.447Z,0.80
2024-02-06T11:52:04.973Z,0.90
2024-02-06T11:54:35.884Z,1.33
2024-02-06T11:57:11.704Z,0.98
2024-02-06T11:59:42.425Z,1.05
2024-02-06T12:02:15.746Z,1.00
2024-02-06T12:04:45.755Z,0.90
2024-02-06T12:07:17.862Z,0.90
2024-02-06T12:09:50.535Z,0.80
2024-02-06T12:12:23.951Z,0.90
2024-02-06T12:14:56.923Z,1.27
2024-02-06T12:17:26.945Z,0.85
2024-02-06T12:19:57.003Z,0.98
2024-02-06T12:22:27.502Z,0.88
2024-02-06T12:25:04.340Z,1.00
2024-02-06T12:27:40.166Z,0.90
2024-02-06T12:32:40.475Z,1.20
2024-02-06T12:35:10.950Z,1.02
2024-02-06T12:37:40.905Z,0.85
2024-02-06T12:40:12.170Z,0.63
2024-02-06T12:42:48.933Z,0.70
2024-02-06T12:45:20.594Z,0.55
2024-02-06T12:47:50.981Z,0.60
2024-02-06T12:50:21.366Z,1.00
2024-02-06T12:52:55.269Z,0.43
2024-02-06T12:55:26.043Z,0.55
2024-02-06T12:58:01.787Z,0.73
2024-02-06T13:00:33.138Z,0.40
2024-02-06T13:03:05.393Z,0.57
2024-02-06T13:05:37.068Z,0.57
2024-02-06T13:08:10.248Z,0.70
2024-02-06T13:10:41.257Z,0.40
2024-02-06T13:13:14.932Z,0.50
2024-02-06T13:15:45.186Z,0.57
2024-02-06T13:18:20.767Z,0.50
2024-02-06T13:21:00.021Z,0.60
2024-02-06T13:23:29.877Z,0.80
2024-02-06T13:25:59.825Z,0.60
2024-02-06T13:28:32.486Z,0.70
2024-02-06T13:31:02.590Z,0.60
2024-02-06T13:33:33.456Z,0.60
2024-02-06T13:36:03.490Z,0.70
2024-02-06T13:38:33.363Z,0.57
2024-02-06T13:41:03.164Z,0.50
2024-02-06T13:43:35.663Z,0.43
2024-02-06T13:46:05.757Z,0.60
2024-02-06T13:48:36.527Z,0.73
2024-02-06T13:51:06.546Z,1.10
2024-02-06T13:53:37.309Z,0.82
2024-02-06T13:56:08.653Z,0.80
2024-02-06T13:58:42.846Z,0.82
2024-02-06T14:01:12.741Z,0.70
2024-02-06T14:03:43.334Z,0.70
2024-02-06T14:06:13.268Z,0.60
2024-02-06T14:08:43.169Z,0.40
2024-02-06T14:11:13.240Z,0.80
2024-02-06T14:13:45.653Z,0.60
2024-02-06T14:16:15.537Z,0.70
2024-02-06T14:18:45.430Z,0.73
2024-02-06T14:21:15.262Z,0.75
2024-02-06T14:23:45.097Z,0.70
2024-02-06T14:26:14.929Z,0.70
2024-02-06T14:28:47.324Z,0.80
2024-02-06T14:31:17.316Z,0.60
2024-02-06T14:33:47.407Z,0.73
2024-02-06T14:36:17.583Z,0.70
2024-02-06T14:38:47.675Z,0.70
2024-02-06T14:41:17.531Z,0.45
2024-02-06T14:43:49.993Z,0.60
2024-02-06T14:46:19.888Z,0.35
2024-02-06T14:48:49.914Z,0.40
2024-02-06T14:51:23.826Z,0.50
2024-02-06T14:53:55.152Z,0.30
2024-02-06T14:56:24.952Z,0.52
2024-02-06T14:58:57.337Z,0.50
2024-02-06T15:01:27.213Z,0.45
2024-02-06T15:04:06.260Z,0.63
2024-02-06T15:06:36.780Z,0.68
2024-02-06T15:09:07.807Z,0.57
2024-02-06T15:11:38.043Z,0.73
2024-02-06T15:14:10.414Z,0.50
2024-02-06T15:16:42.741Z,0.70
2024-02-06T15:19:12.923Z,0.68
2024-02-06T15:21:42.804Z,0.60
2024-02-06T15:24:12.706Z,1.10
2024-02-06T15:26:42.566Z,0.90
2024-02-06T15:29:15.338Z,1.13
2024-02-06T15:31:45.679Z,1.60
2024-02-06T15:34:15.832Z,1.10
2024-02-06T15:36:45.753Z,1.27
2024-02-06T15:39:16.886Z,1.20
2024-02-06T15:41:46.774Z,1.40
2024-02-06T15:44:19.159Z,1.27
2024-02-06T15:46:54.494Z,1.38
2024-02-06T15:49:24.918Z,1.23
2024-02-06T15:51:54.777Z,1.33
2024-02-06T15:54:24.581Z,1.30
2024-02-06T15:56:54.437Z,1.63
2024-02-06T15:59:27.115Z,1.20
2024-02-06T16:01:57.266Z,1.10
2024-02-06T16:04:27.208Z,0.95
2024-02-06T16:06:57.152Z,1.33
2024-02-06T16:09:27.363Z,1.23
2024-02-06T16:11:57.232Z,0.68
2024-02-06T16:14:31.572Z,0.85
2024-02-06T16:17:02.534Z,1.13
2024-02-06T16:19:38.890Z,1.50
2024-02-06T16:22:10.403Z,1.35
2024-02-06T16:24:40.244Z,1.33
2024-02-06T16:27:10.094Z,1.52
2024-02-06T16:29:42.896Z,1.08
2024-02-06T16:32:12.682Z,1.40
2024-02-06T16:34:42.912Z,1.30
2024-02-06T16:37:12.896Z,1.58
2024-02-06T16:39:42.715Z,1.73
2024-02-06T16:42:13.525Z,1.33
2024-02-06T16:44:46.141Z,1.20
2024-02-06T16:47:16.094Z,1.50
2024-02-06T16:49:46.284Z,1.50
2024-02-06T16:52:16.247Z,1.38
2024-02-06T16:54:46.079Z,1.30
2024-02-06T16:57:16.068Z,1.15
2024-02-06T16:59:48.525Z,1.30
2024-02-06T17:02:18.750Z,1.77
2024-02-06T17:04:48.721Z,1.55
2024-02-06T17:07:18.712Z,1.05
2024-02-06T17:09:48.566Z,1.20
2024-02-06T17:12:19.428Z,1.42
2024-02-06T17:14:51.853Z,1.38
2024-02-06T17:17:21.717Z,1.42
2024-02-06T17:19:52.243Z,1.50
2024-02-06T17:22:22.240Z,1.77
2024-02-06T17:24:52.098Z,1.63
2024-02-06T17:27:21.941Z,1.50
2024-02-06T17:29:54.396Z,1.27
2024-02-06T17:32:24.496Z,1.58
2024-02-06T17:34:54.454Z,1.88
2024-02-06T17:37:24.416Z,1.70
2024-02-06T17:39:54.221Z,1.35
2024-02-06T17:42:24.102Z,1.17
2024-02-06T17:44:57.084Z,1.27
2024-02-06T17:47:27.004Z,1.27
2024-02-06T17:49:56.966Z,1.50
2024-02-06T17:52:26.883Z,1.10
2024-02-06T17:54:57.016Z,1.20
2024-02-06T17:57:26.840Z,1.10
2024-02-06T17:59:59.391Z,1.67
2024-02-06T18:02:42.316Z,1.45
2024-02-06T18:05:19.137Z,1.00
2024-02-06T18:07:51.577Z,1.40
2024-02-06T18:10:21.795Z,1.30
2024-02-06T18:12:54.182Z,1.00
2024-02-06T18:15:26.708Z,1.20
2024-02-06T18:17:56.643Z,1.42
2024-02-06T18:20:26.825Z,0.90
2024-02-06T18:22:57.043Z,1.10
2024-02-06T18:25:27.116Z,1.08
2024-02-06T18:27:56.961Z,1.15
2024-02-06T18:30:30.582Z,1.00
2024-02-06T18:33:00.580Z,1.17
2024-02-06T18:35:30.780Z,0.80
2024-02-06T18:38:00.639Z,0.70
2024-02-06T18:40:30.527Z,1.10
2024-02-06T18:43:00.477Z,1.50
2024-02-06T18:45:32.833Z,1.00
2024-02-06T18:48:02.640Z,0.88
2024-02-06T18:50:32.922Z,0.90
2024-02-06T18:53:02.849Z,1.20
2024-02-06T18:55:32.720Z,0.75
2024-02-06T18:58:02.577Z,0.90
2024-02-06T19:00:35.115Z,0.90
2024-02-06T19:03:05.501Z,1.00
2024-02-06T19:05:36.618Z,0.82
2024-02-06T19:08:09.266Z,0.90
2024-02-06T19:10:39.430Z,0.80
2024-02-06T19:13:09.675Z,0.73
2024-02-06T19:15:42.228Z,0.90
2024-02-06T19:18:13.175Z,0.73
2024-02-06T19:20:43.575Z,1.13
2024-02-06T19:23:13.683Z,0.80
2024-02-06T19:25:47.247Z,1.00
2024-02-06T19:28:17.597Z,0.95
2024-02-06T19:30:50.194Z,1.05
2024-02-06T19:33:20.778Z,0.77
2024-02-06T19:35:50.806Z,0.90
2024-02-06T19:38:20.838Z,1.05
2024-02-06T19:40:51.171Z,0.68
2024-02-06T19:43:21.916Z,1.00
2024-02-06T19:45:54.903Z,1.27
2024-02-06T19:48:26.341Z,0.85
2024-02-06T19:50:57.280Z,0.88
2024-02-06T19:53:27.308Z,0.82
2024-02-06T19:55:57.923Z,0.95
2024-02-06T19:58:28.011Z,1.40
2024-02-06T20:01:00.599Z,1.05
2024-02-06T20:03:30.595Z,1.05
2024-02-06T20:06:00.754Z,1.00
2024-02-06T20:08:34.287Z,0.80
2024-02-06T20:11:06.207Z,0.98
2024-02-06T20:13:36.731Z,1.02
2024-02-06T20:16:10.581Z,1.13
2024-02-06T20:18:40.665Z,0.73
2024-02-06T20:21:10.698Z,0.80
2024-02-06T20:23:41.474Z,0.65
2024-02-06T20:26:11.401Z,1.20
2024-02-06T20:28:41.334Z,1.30
2024-02-06T20:31:13.980Z,1.25
2024-02-06T20:33:45.647Z,1.55
2024-02-06T20:36:15.896Z,1.90
2024-02-06T20:38:46.204Z,1.70
2024-02-06T20:41:16.311Z,1.60
2024-02-06T20:43:46.254Z,1.85
2024-02-06T20:46:19.729Z,2.15
2024-02-06T20:48:49.783Z,2.05
2024-02-06T20:51:21.258Z,2.30
2024-02-06T20:53:52.359Z,2.00
2024-02-06T20:56:22.249Z,1.70
2024-02-06T20:58:52.336Z,2.25
2024-02-06T21:01:25.346Z,1.70
2024-02-06T21:03:55.645Z,2.15
2024-02-06T21:06:25.613Z,2.17
2024-02-06T21:08:56.014Z,2.53
2024-02-06T21:11:26.747Z,1.85
2024-02-06T21:13:57.439Z,2.15
2024-02-06T21:16:30.057Z,3.30
2024-02-06T21:19:00.110Z,1.98
2024-02-06T21:21:29.956Z,2.13
2024-02-06T21:23:59.837Z,2.53
2024-02-06T21:26:30.004Z,2.17
2024-02-06T21:29:00.886Z,2.10
2024-02-06T21:31:33.527Z,2.55
2024-02-06T21:34:03.821Z,2.65
2024-02-06T21:36:39.055Z,2.40
2024-02-06T21:39:12.297Z,1.70
2024-02-06T21:41:42.362Z,2.05
2024-02-06T21:44:12.196Z,1.85
2024-02-06T21:46:45.291Z,1.80
2024-02-06T21:49:15.241Z,1.75
2024-02-06T21:51:45.190Z,1.70
2024-02-06T21:54:15.763Z,1.88
2024-02-06T21:56:46.915Z,1.95
2024-02-06T21:59:17.279Z,1.65
2024-02-06T22:01:51.830Z,2.17
2024-02-06T22:04:21.784Z,2.05
2024-02-06T22:06:52.143Z,2.03
2024-02-06T22:09:22.253Z,1.92
2024-02-06T22:11:52.112Z,1.90
2024-02-06T22:14:24.518Z,1.40
2024-02-06T22:16:57.473Z,1.52
2024-02-06T22:19:27.940Z,1.60
2024-02-06T22:21:57.999Z,1.48
2024-02-06T22:24:27.806Z,1.50
2024-02-06T22:26:57.779Z,1.20
2024-02-06T22:29:27.959Z,1.08
2024-02-06T22:32:00.496Z,1.23
2024-02-06T22:34:32.970Z,1.63
2024-02-06T22:37:04.758Z,1.30
2024-02-06T22:39:34.670Z,1.13
2024-02-06T22:42:06.078Z,1.27
2024-02-06T22:44:37.529Z,1.10
2024-02-06T22:47:10.147Z,1.02
2024-02-06T22:49:40.353Z,1.10
2024-02-06T22:52:10.320Z,1.10
2024-02-06T22:54:40.155Z,0.93
2024-02-06T22:57:10.339Z,1.17
2024-02-06T22:59:40.207Z,1.02
2024-02-06T23:02:12.773Z,1.20
2024-02-06T23:04:42.661Z,1.00
2024-02-06T23:07:12.589Z,0.80
2024-02-06T23:09:45.229Z,0.82
2024-02-06T23:12:15.154Z,0.80
2024-02-06T23:14:44.963Z,0.88
2024-02-06T23:17:17.529Z,0.80
2024-02-06T23:19:47.398Z,0.90
2024-02-06T23:22:17.509Z,0.77
2024-02-06T23:24:47.405Z,0.70
2024-02-06T23:27:17.628Z,0.80
2024-02-06T23:29:47.414Z,0.70
2024-02-06T23:32:19.798Z,1.00
2024-02-06T23:34:49.674Z,1.00
2024-02-06T23:37:19.711Z,0.70
2024-02-06T23:39:50.626Z,0.70
2024-02-06T23:42:20.479Z,0.98
2024-02-06T23:44:50.982Z,0.80
2024-02-06T23:47:23.441Z,0.82
2024-02-06T23:49:55.351Z,0.95
2024-02-06T23:52:26.929Z,0.82
2024-02-06T23:54:56.734Z,0.73
2024-02-06T23:57:26.532Z,0.90
2024-02-06T23:59:56.326Z,1.08
